Time;durP1;ratioP1;P1;durP2;ratioP2;P2;SDS_P1;SDS_P2;PMS_P1;PMS_P2;Temp;Humidity;BMP_temperature;BMP_pressure;BME280_temperature;BME280_humidity;BME280_pressure;Samples;Min_cycle;Max_cycle;Signal;HPM_P1;HPM_P2
2023/03/04 00:02:25;;;;;;;17.40;11.30;;;;;;;1.53;100.00;99569.86;105920;1254;68585;-58
2023/03/04 00:04:53;;;;;;;16.80;11.60;;;;;;;1.53;100.00;99568.83;105745;1254;73456;-55
2023/03/04 00:07:22;;;;;;;17.40;10.90;;;;;;;1.52;100.00;99566.13;105515;1254;62756;-55
2023/03/04 00:09:52;;;;;;;15.70;10.80;;;;;;;1.52;100.00;99564.27;105731;1254;61207;-56
2023/03/04 00:12:21;;;;;;;18.20;11.40;;;;;;;1.51;100.00;99561.21;106037;1254;74601;-58
2023/03/04 00:14:50;;;;;;;19.90;11.70;;;;;;;1.50;100.00;99559.80;105535;1257;66477;-55
2023/03/04 00:17:21;;;;;;;17.20;11.60;;;;;;;1.49;100.00;99557.98;105721;1257;73153;-55
2023/03/04 00:19:49;;;;;;;18.80;11.50;;;;;;;1.48;100.00;99555.89;106021;1257;61867;-55
2023/03/04 00:22:18;;;;;;;18.10;11.90;;;;;;;1.47;100.00;99555.64;105922;1254;61522;-58
2023/03/04 00:24:46;;;;;;;20.10;12.10;;;;;;;1.47;100.00;99555.61;105696;1256;74782;-56
2023/03/04 00:27:15;;;;;;;17.50;11.10;;;;;;;1.47;100.00;99554.08;105901;1254;67817;-55
2023/03/04 00:29:43;;;;;;;19.20;11.30;;;;;;;1.47;100.00;99548.61;105844;1257;73142;-55
2023/03/04 00:32:15;;;;;;;18.30;11.80;;;;;;;1.47;100.00;99548.59;105557;1253;61274;-58
2023/03/04 00:34:43;;;;;;;19.60;11.60;;;;;;;1.46;100.00;99547.13;105598;1254;61245;-55
2023/03/04 00:37:13;;;;;;;18.00;11.20;;;;;;;1.46;100.00;99543.05;105885;1253;76550;-56
2023/03/04 00:39:41;;;;;;;16.50;11.10;;;;;;;1.45;100.00;99539.87;106012;1257;69044;-55
2023/03/04 00:42:10;;;;;;;19.00;11.80;;;;;;;1.45;100.00;99534.06;106175;1254;73744;-58
2023/03/04 00:44:39;;;;;;;19.30;12.10;;;;;;;1.45;100.00;99539.23;105669;1254;61352;-54
2023/03/04 00:47:07;;;;;;;18.20;11.30;;;;;;;1.44;100.00;99535.17;105895;1254;61750;-54
2023/03/04 00:49:38;;;;;;;19.70;12.30;;;;;;;1.45;100.00;99537.02;105826;1257;76231;-54
2023/03/04 00:52:07;;;;;;;18.40;11.50;;;;;;;1.44;100.00;99535.59;106177;1253;68366;-55
2023/03/04 00:54:41;;;;;;;17.00;11.50;;;;;;;1.44;100.00;99535.40;105460;1254;73277;-54
2023/03/04 00:57:10;;;;;;;18.20;12.20;;;;;;;1.44;100.00;99540.34;105838;1257;61342;-55
2023/03/04 00:59:39;;;;;;;19.60;12.50;;;;;;;1.43;100.00;99541.27;105846;1254;62332;-54
2023/03/04 01:02:10;;;;;;;18.30;11.40;;;;;;;1.43;100.00;99541.81;106093;1257;75049;-57
2023/03/04 01:04:41;;;;;;;16.20;11.20;;;;;;;1.43;100.00;99543.46;105622;1254;67585;-54
2023/03/04 01:07:11;;;;;;;18.20;11.10;;;;;;;1.44;100.00;99542.36;105790;1257;73207;-55
2023/03/04 01:09:45;;;;;;;16.40;11.00;;;;;;;1.45;100.00;99540.03;105779;1254;61262;-55
2023/03/04 01:12:13;;;;;;;18.00;11.40;;;;;;;1.46;100.00;99533.27;105972;1254;61182;-58
2023/03/04 01:14:42;;;;;;;19.60;11.20;;;;;;;1.46;100.00;99531.69;105783;1254;74743;-57
2023/03/04 01:17:16;;;;;;;16.00;11.30;;;;;;;1.48;100.00;99529.66;105735;1254;68542;-56
2023/03/04 01:19:44;;;;;;;20.40;12.50;;;;;;;1.50;100.00;99523.87;105787;1254;73385;-56
2023/03/04 01:22:15;;;;;;;18.40;11.70;;;;;;;1.51;100.00;99525.27;106064;1254;61266;-57
2023/03/04 01:24:48;;;;;;;19.40;12.10;;;;;;;1.52;100.00;99522.33;105707;1254;61876;-56
2023/03/04 01:27:17;;;;;;;20.40;12.80;;;;;;;1.52;100.00;99519.02;105993;1254;76105;-56
2023/03/04 01:29:51;;;;;;;20.20;13.20;;;;;;;1.52;100.00;99518.67;105830;1254;68397;-56
2023/03/04 01:32:19;;;;;;;16.50;12.40;;;;;;;1.53;100.00;99517.45;105904;1257;73907;-59
2023/03/04 01:34:49;;;;;;;18.60;12.50;;;;;;;1.54;100.00;99514.19;105502;1254;61233;-55
2023/03/04 01:37:17;;;;;;;19.10;12.20;;;;;;;1.54;100.00;99516.79;105709;1254;61747;-55
2023/03/04 01:39:47;;;;;;;20.60;13.10;;;;;;;1.55;100.00;99512.27;105525;1259;76158;-57
2023/03/04 01:42:22;;;;;;;20.00;13.00;;;;;;;1.55;100.00;99510.08;105650;1254;68735;-58
2023/03/04 01:44:51;;;;;;;20.50;13.50;;;;;;;1.54;100.00;99511.14;105533;1259;73240;-55
2023/03/04 01:47:27;;;;;;;19.80;12.70;;;;;;;1.54;100.00;99509.77;105623;1259;61605;-54
2023/03/04 01:49:56;;;;;;;19.90;11.60;;;;;;;1.54;100.00;99505.33;105662;1258;61609;-57
2023/03/04 01:52:26;;;;;;;17.50;12.80;;;;;;;1.53;100.00;99502.65;105777;1256;76198;-55
2023/03/04 01:54:55;;;;;;;21.00;12.40;;;;;;;1.53;100.00;99504.77;105672;1254;68335;-55
2023/03/04 01:57:25;;;;;;;17.80;12.40;;;;;;;1.52;100.00;99500.05;105819;1254;73617;-54
2023/03/04 02:00:20;;;;;;;17.10;11.60;;;;;;;1.52;100.00;99498.33;105884;1260;61112;-55
2023/03/04 02:02:51;;;;;;;19.00;12.30;;;;;;;1.52;100.00;99499.02;105756;1254;61144;-55
2023/03/04 02:05:20;;;;;;;17.70;12.10;;;;;;;1.51;100.00;99497.55;106103;1253;76361;-56
2023/03/04 02:07:50;;;;;;;17.30;12.50;;;;;;;1.51;100.00;99496.73;105452;1254;68941;-54
2023/03/04 02:10:22;;;;;;;20.50;12.70;;;;;;;1.51;100.00;99500.31;105843;1254;72909;-55
2023/03/04 02:12:53;;;;;;;16.10;12.00;;;;;;;1.51;100.00;99499.98;105657;1259;61225;-56
2023/03/04 02:15:22;;;;;;;19.30;13.00;;;;;;;1.49;100.00;99496.35;105811;1254;61610;-58
2023/03/04 02:17:56;;;;;;;18.60;11.70;;;;;;;1.48;100.00;99497.66;105700;1256;76202;-55
2023/03/04 02:20:36;;;;;;;19.50;13.00;;;;;;;1.46;100.00;99495.96;105656;1254;67725;-56
2023/03/04 02:23:11;;;;;;;17.40;11.80;;;;;;;1.46;100.00;99495.31;105322;1254;73305;-57
2023/03/04 02:25:49;;;;;;;18.10;12.20;;;;;;;1.46;100.00;99491.56;105556;1254;61237;-55
2023/03/04 02:28:18;;;;;;;21.10;12.60;;;;;;;1.45;100.00;99494.19;105478;1254;61386;-55
2023/03/04 02:30:46;;;;;;;16.90;12.50;;;;;;;1.43;100.00;99492.63;105793;1258;76111;-56
2023/03/04 02:33:16;;;;;;;18.30;12.00;;;;;;;1.43;100.00;99489.40;105753;1254;66532;-56
2023/03/04 02:35:46;;;;;;;18.40;12.90;;;;;;;1.44;100.00;99486.75;105637;1253;73270;-55
2023/03/04 02:38:15;;;;;;;18.30;12.30;;;;;;;1.44;100.00;99482.77;105812;1257;61281;-56
2023/03/04 02:40:46;;;;;;;19.10;12.00;;;;;;;1.44;100.00;99485.91;105983;1254;61244;-56
2023/03/04 02:43:14;;;;;;;17.20;11.50;;;;;;;1.42;100.00;99485.68;105684;1255;74317;-55
2023/03/04 02:45:44;;;;;;;17.10;11.40;;;;;;;1.42;100.00;99484.04;105829;1257;68587;-56
2023/03/04 02:48:14;;;;;;;19.70;12.70;;;;;;;1.40;100.00;99478.70;105460;1254;74180;-56
2023/03/04 02:50:45;;;;;;;17.40;11.90;;;;;;;1.38;100.00;99476.48;105611;1259;61306;-56
2023/03/04 02:53:14;;;;;;;17.60;12.40;;;;;;;1.37;100.00;99475.92;105376;1259;61789;-57
2023/03/04 02:55:45;;;;;;;16.70;11.40;;;;;;;1.36;100.00;99472.59;105679;1254;75121;-55
2023/03/04 02:58:17;;;;;;;18.90;11.80;;;;;;;1.35;100.00;99472.04;105613;1254;68657;-55
2023/03/04 03:00:46;;;;;;;17.80;12.10;;;;;;;1.34;100.00;99467.00;105745;1259;74197;-57
2023/03/04 03:03:19;;;;;;;17.30;11.40;;;;;;;1.32;100.00;99461.01;105803;1260;61365;-57
2023/03/04 03:05:48;;;;;;;16.20;11.10;;;;;;;1.30;100.00;99449.59;105791;1254;61109;-56
2023/03/04 03:08:17;;;;;;;19.40;12.50;;;;;;;1.27;100.00;99449.36;105427;1259;76100;-55
2023/03/04 03:10:49;;;;;;;17.30;11.80;;;;;;;1.22;100.00;99459.48;105683;1257;68429;-55
2023/03/04 03:13:18;;;;;;;18.30;12.30;;;;;;;1.18;100.00;99469.82;105726;1254;74261;-56
2023/03/04 03:15:47;;;;;;;19.60;11.90;;;;;;;1.13;100.00;99473.71;105622;1259;61324;-56
2023/03/04 03:18:17;;;;;;;20.50;11.80;;;;;;;1.07;100.00;99479.40;105547;1254;61915;-56
2023/03/04 03:20:46;;;;;;;15.60;11.40;;;;;;;0.98;100.00;99488.21;106090;1256;76515;-58
2023/03/04 03:23:16;;;;;;;18.40;12.10;;;;;;;0.89;100.00;99483.08;105754;1254;68632;-55
2023/03/04 03:25:45;;;;;;;21.70;11.90;;;;;;;0.79;100.00;99486.80;105687;1259;73098;-55
2023/03/04 03:28:16;;;;;;;17.00;11.90;;;;;;;0.67;100.00;99485.53;105750;1254;61375;-56
2023/03/04 03:30:45;;;;;;;15.70;12.00;;;;;;;0.58;100.00;99486.10;105917;1258;61312;-57
2023/03/04 03:33:13;;;;;;;19.00;11.50;;;;;;;0.47;100.00;99488.59;105925;1257;76249;-54
2023/03/04 03:35:42;;;;;;;19.80;11.90;;;;;;;0.37;100.00;99487.80;105967;1258;68285;-56
2023/03/04 03:38:12;;;;;;;19.60;13.60;;;;;;;0.27;100.00;99489.51;105643;1260;73166;-54
2023/03/04 03:40:40;;;;;;;19.20;11.70;;;;;;;0.19;100.00;99487.35;106004;1253;61705;-57
2023/03/04 03:43:10;;;;;;;19.10;11.50;;;;;;;0.12;100.00;99484.17;105736;1259;61266;-54
2023/03/04 03:45:38;;;;;;;20.20;12.90;;;;;;;0.07;100.00;99481.36;105902;1257;76362;-54
2023/03/04 03:48:07;;;;;;;21.30;13.10;;;;;;;0.01;100.00;99482.80;105820;1259;67465;-54
2023/03/04 03:50:35;;;;;;;20.30;12.60;;;;;;;-0.05;100.00;99483.30;106010;1254;73907;-56
2023/03/04 03:53:04;;;;;;;18.10;11.10;;;;;;;-0.12;100.00;99482.54;105822;1259;61679;-54
2023/03/04 03:55:33;;;;;;;19.30;13.00;;;;;;;-0.20;100.00;99484.38;105825;1254;61740;-54
2023/03/04 03:58:01;;;;;;;19.60;12.30;;;;;;;-0.25;100.00;99484.98;105964;1254;76130;-54
2023/03/04 04:00:30;;;;;;;19.70;12.60;;;;;;;-0.32;100.00;99487.66;105958;1254;68704;-54
2023/03/04 04:03:00;;;;;;;18.80;11.30;;;;;;;-0.38;100.00;99490.59;105919;1255;73724;-55
2023/03/04 04:05:29;;;;;;;20.90;13.10;;;;;;;-0.44;100.00;99491.95;105832;1254;61421;-54
2023/03/04 04:07:58;;;;;;;20.00;12.70;;;;;;;-0.47;100.00;99494.23;105521;1254;61781;-54
2023/03/04 04:10:27;;;;;;;21.00;12.80;;;;;;;-0.48;100.00;99495.03;106162;1257;76527;-57
2023/03/04 04:12:56;;;;;;;20.90;12.80;;;;;;;-0.51;100.00;99495.96;105793;1254;69132;-55
2023/03/04 04:15:24;;;;;;;21.70;12.60;;;;;;;-0.53;100.00;99497.11;105786;1259;74214;-54
2023/03/04 04:17:54;;;;;;;19.40;12.90;;;;;;;-0.53;100.00;99498.14;105704;1260;61336;-55
2023/03/04 04:20:22;;;;;;;19.50;12.70;;;;;;;-0.52;100.00;99504.77;105766;1259;61214;-55
2023/03/04 04:22:54;;;;;;;20.00;12.20;;;;;;;-0.44;100.00;99501.52;105776;1254;76059;-54
2023/03/04 04:25:23;;;;;;;20.40;12.60;;;;;;;-0.23;100.00;99508.11;105824;1254;69065;-55
2023/03/04 04:27:53;;;;;;;19.30;12.30;;;;;;;0.03;100.00;99510.60;105874;1254;74367;-55
2023/03/04 04:30:21;;;;;;;20.20;13.00;;;;;;;0.33;100.00;99513.23;105614;1254;60915;-57
2023/03/04 04:32:52;;;;;;;21.60;12.00;;;;;;;0.66;100.00;99506.92;105939;1255;61293;-55
2023/03/04 04:35:21;;;;;;;21.60;12.70;;;;;;;0.98;100.00;99511.73;105874;1257;76202;-56
2023/03/04 04:37:49;;;;;;;18.60;11.50;;;;;;;1.31;100.00;99509.90;105871;1258;68877;-56
2023/03/04 04:40:18;;;;;;;19.30;12.30;;;;;;;1.62;100.00;99505.92;105868;1259;73211;-56
2023/03/04 04:42:47;;;;;;;18.20;13.00;;;;;;;1.98;100.00;99513.02;105833;1259;61350;-56
2023/03/04 04:45:16;;;;;;;19.10;12.70;;;;;;;2.36;100.00;99511.40;105830;1257;61433;-56
2023/03/04 04:47:45;;;;;;;17.10;12.20;;;;;;;2.71;100.00;99509.98;105803;1257;76189;-57
2023/03/04 04:50:15;;;;;;;17.70;12.80;;;;;;;3.11;100.00;99509.71;105878;1258;69329;-57
2023/03/04 04:52:44;;;;;;;21.60;13.30;;;;;;;3.41;100.00;99509.13;105758;1254;74222;-56
2023/03/04 04:55:12;;;;;;;19.50;13.00;;;;;;;3.52;100.00;99507.98;105916;1254;61342;-56
2023/03/04 04:57:41;;;;;;;17.80;12.20;;;;;;;3.53;100.00;99505.59;105920;1254;61214;-56
2023/03/04 05:00:11;;;;;;;16.70;11.50;;;;;;;3.51;100.00;99499.41;105840;1257;76336;-57
2023/03/04 05:02:40;;;;;;;18.90;12.80;;;;;;;3.54;100.00;99498.66;106210;1259;68395;-56
2023/03/04 05:05:09;;;;;;;19.10;12.40;;;;;;;3.63;100.00;99503.03;105718;1257;73494;-56
2023/03/04 05:07:41;;;;;;;17.80;12.50;;;;;;;3.70;100.00;99499.77;105710;1258;61756;-59
2023/03/04 05:10:10;;;;;;;18.10;12.50;;;;;;;3.67;100.00;99499.89;105920;1258;61225;-58
2023/03/04 05:12:38;;;;;;;19.20;12.40;;;;;;;3.54;100.00;99502.06;105829;1254;75216;-57
2023/03/04 05:15:07;;;;;;;18.90;12.70;;;;;;;3.35;100.00;99502.41;105868;1254;68658;-56
2023/03/04 05:17:38;;;;;;;17.60;12.40;;;;;;;3.13;100.00;99505.17;105702;1259;74795;-56
2023/03/04 05:20:09;;;;;;;17.60;11.70;;;;;;;2.89;100.00;99508.98;105757;1257;62485;-58
2023/03/04 05:22:38;;;;;;;18.90;12.70;;;;;;;2.69;100.00;99507.04;105939;1254;61598;-56
2023/03/04 05:25:07;;;;;;;18.70;12.40;;;;;;;2.49;100.00;99513.52;105775;1257;75601;-56
2023/03/04 05:27:36;;;;;;;17.10;12.20;;;;;;;2.32;100.00;99516.25;105987;1254;68328;-58
2023/03/04 05:30:06;;;;;;;18.20;12.60;;;;;;;2.16;100.00;99519.33;106153;1256;72968;-58
2023/03/04 05:32:35;;;;;;;18.90;12.30;;;;;;;2.00;100.00;99517.27;105664;1254;62364;-54
2023/03/04 05:35:04;;;;;;;22.40;13.90;;;;;;;1.86;100.00;99523.21;105708;1256;61793;-54
2023/03/04 05:37:32;;;;;;;18.50;12.40;;;;;;;1.80;100.00;99525.33;105610;1257;76311;-56
2023/03/04 05:40:01;;;;;;;18.80;12.40;;;;;;;1.89;100.00;99525.80;105930;1257;66718;-56
2023/03/04 05:42:30;;;;;;;20.00;13.20;;;;;;;2.14;100.00;99534.11;105710;1254;74100;-55
2023/03/04 05:44:59;;;;;;;18.50;12.50;;;;;;;2.46;100.00;99530.67;105744;1254;62574;-55
2023/03/04 05:47:28;;;;;;;18.60;12.90;;;;;;;2.79;100.00;99531.71;105732;1256;60330;-56
2023/03/04 05:49:57;;;;;;;21.70;14.80;;;;;;;3.12;100.00;99530.48;105806;1257;76479;-56
2023/03/04 05:52:26;;;;;;;19.10;12.60;;;;;;;3.40;100.00;99527.36;105760;1260;67690;-55
2023/03/04 05:54:54;;;;;;;19.40;13.10;;;;;;;3.64;100.00;99528.19;105729;1254;74671;-55
2023/03/04 05:57:23;;;;;;;18.70;12.90;;;;;;;3.89;100.00;99526.98;105933;1260;61256;-58
2023/03/04 05:59:51;;;;;;;20.80;12.80;;;;;;;4.17;100.00;99535.83;105985;1257;61263;-54
2023/03/04 06:02:20;;;;;;;19.00;12.10;;;;;;;4.49;100.00;99537.81;105431;1257;75590;-55
2023/03/04 06:04:48;;;;;;;20.30;11.90;;;;;;;4.78;100.00;99541.64;105699;1254;68039;-55
2023/03/04 06:07:18;;;;;;;18.40;12.10;;;;;;;5.09;100.00;99541.11;106064;1257;73379;-56
2023/03/04 06:09:48;;;;;;;17.90;12.10;;;;;;;5.56;100.00;99533.89;105459;1260;61205;-56
2023/03/04 06:12:16;;;;;;;18.40;11.70;;;;;;;6.12;100.00;99537.82;105496;1259;61182;-55
2023/03/04 06:14:48;;;;;;;17.60;11.20;;;;;;;6.70;100.00;99532.73;105700;1254;76605;-55
2023/03/04 06:17:17;;;;;;;16.60;11.70;;;;;;;7.08;100.00;99532.63;105809;1259;67814;-56
2023/03/04 06:19:46;;;;;;;17.40;11.90;;;;;;;7.39;100.00;99533.48;105708;1260;73244;-57
2023/03/04 06:22:16;;;;;;;18.20;12.20;;;;;;;7.86;100.00;99531.64;105718;1254;61273;-56
2023/03/04 06:24:44;;;;;;;16.90;11.90;;;;;;;8.37;100.00;99539.80;105791;1253;61167;-56
2023/03/04 06:27:19;;;;;;;15.10;10.80;;;;;;;8.89;100.00;99535.88;105570;1254;75029;-56
2023/03/04 06:29:48;;;;;;;15.00;11.30;;;;;;;9.21;100.00;99533.80;105773;1254;67630;-55
2023/03/04 06:32:16;;;;;;;15.90;12.50;;;;;;;9.46;100.00;99533.23;105443;1259;74442;-56
2023/03/04 06:34:47;;;;;;;14.40;11.30;;;;;;;9.58;100.00;99534.49;106023;1254;61348;-58
2023/03/04 06:37:16;;;;;;;12.70;10.60;;;;;;;9.64;100.00;99533.98;105730;1257;60420;-55
2023/03/04 06:39:51;;;;;;;14.60;11.70;;;;;;;9.74;100.00;99529.88;105825;1254;74209;-56
2023/03/04 06:42:20;;;;;;;16.40;12.00;;;;;;;9.94;100.00;99524.68;105746;1264;67475;-56
2023/03/04 06:44:48;;;;;;;13.50;10.30;;;;;;;10.12;100.00;99526.80;105741;1254;72783;-57
2023/03/04 06:47:17;;;;;;;14.90;11.20;;;;;;;10.30;100.00;99521.92;105669;1254;61516;-55
2023/03/04 06:49:46;;;;;;;15.20;12.10;;;;;;;10.56;100.00;99525.02;105867;1254;61837;-56
2023/03/04 06:52:14;;;;;;;13.00;10.70;;;;;;;10.87;100.00;99524.21;105670;1257;76107;-54
2023/03/04 06:54:45;;;;;;;13.80;11.50;;;;;;;11.20;100.00;99524.63;105776;1260;68478;-57
2023/03/04 06:57:14;;;;;;;14.10;11.00;;;;;;;11.27;100.00;99523.73;105687;1254;74820;-55
2023/03/04 06:59:43;;;;;;;13.20;10.90;;;;;;;11.28;100.00;99524.61;105903;1254;61956;-56
2023/03/04 07:02:13;;;;;;;13.80;10.40;;;;;;;11.38;100.00;99527.50;105695;1259;61565;-55
2023/03/04 07:04:43;;;;;;;13.10;9.70;;;;;;;11.62;100.00;99526.29;105789;1256;76081;-55
2023/03/04 07:07:11;;;;;;;13.90;10.90;;;;;;;11.86;100.00;99521.38;105836;1254;67331;-56
2023/03/04 07:09:41;;;;;;;12.90;10.20;;;;;;;11.98;100.00;99526.38;105599;1266;72961;-58
2023/03/04 07:12:10;;;;;;;13.70;10.90;;;;;;;12.24;99.87;99523.56;105663;1253;61389;-55
2023/03/04 07:14:41;;;;;;;12.30;10.40;;;;;;;12.47;97.27;99524.77;105791;1261;62079;-57
2023/03/04 07:17:10;;;;;;;13.90;11.10;;;;;;;12.61;95.12;99529.04;105901;1257;76602;-57
2023/03/04 07:19:39;;;;;;;12.80;10.50;;;;;;;12.84;93.19;99527.77;105959;1257;68410;-56
2023/03/04 07:22:08;;;;;;;13.50;11.40;;;;;;;13.01;87.53;99525.63;105771;1259;73215;-55
2023/03/04 07:24:37;;;;;;;14.60;10.70;;;;;;;13.05;82.87;99534.03;105842;1260;61232;-56
2023/03/04 07:27:05;;;;;;;13.60;10.80;;;;;;;12.96;80.01;99531.36;105810;1257;61237;-56
2023/03/04 07:29:34;;;;;;;12.60;9.70;;;;;;;12.72;81.09;99538.92;105551;1258;74264;-58
2023/03/04 07:32:07;;;;;;;14.40;10.80;;;;;;;12.51;83.02;99538.13;105778;1260;66995;-56
2023/03/04 07:34:35;;;;;;;13.30;10.40;;;;;;;12.26;83.39;99536.77;105599;1255;74703;-57
2023/03/04 07:37:04;;;;;;;14.20;10.90;;;;;;;11.82;84.67;99539.02;105715;1257;61939;-54
2023/03/04 07:39:35;;;;;;;13.10;10.00;;;;;;;11.23;91.39;99544.68;105850;1254;62364;-56
2023/03/04 07:42:04;;;;;;;12.70;10.10;;;;;;;10.65;98.08;99546.36;105593;1258;76040;-56
2023/03/04 07:44:38;;;;;;;12.50;9.50;;;;;;;10.14;100.00;99551.20;105701;1254;68711;-57
2023/03/04 07:47:07;;;;;;;14.20;10.60;;;;;;;9.78;100.00;99555.66;105601;1259;74074;-56
2023/03/04 07:49:36;;;;;;;14.70;11.20;;;;;;;9.63;100.00;99557.17;105727;1264;60580;-57
2023/03/04 07:52:05;;;;;;;14.70;10.70;;;;;;;9.58;100.00;99552.99;105747;1254;61652;-55
2023/03/04 07:54:33;;;;;;;14.70;10.70;;;;;;;9.44;100.00;99549.67;105679;1254;75667;-55
2023/03/04 07:57:02;;;;;;;15.00;10.10;;;;;;;9.43;100.00;99547.19;105870;1260;67727;-57
2023/03/04 07:59:31;;;;;;;14.10;10.20;;;;;;;9.63;100.00;99543.55;105795;1257;74265;-56
2023/03/04 08:02:00;;;;;;;17.40;12.10;;;;;;;10.06;100.00;99539.81;105656;1257;61844;-54
2023/03/04 08:04:28;;;;;;;14.40;10.30;;;;;;;10.68;100.00;99536.94;105697;1254;61306;-56
2023/03/04 08:06:57;;;;;;;13.50;10.70;;;;;;;11.28;100.00;99535.00;105721;1257;75651;-56
2023/03/04 08:09:27;;;;;;;13.50;10.60;;;;;;;11.72;100.00;99528.42;105907;1255;68731;-56
2023/03/04 08:11:56;;;;;;;12.40;9.70;;;;;;;11.91;99.72;99528.91;105628;1257;73996;-56
2023/03/04 08:14:25;;;;;;;14.50;10.80;;;;;;;11.84;95.87;99525.16;105868;1257;61240;-56
2023/03/04 08:16:55;;;;;;;14.20;11.30;;;;;;;11.66;97.80;99524.14;105817;1255;61800;-57
2023/03/04 08:19:25;;;;;;;13.90;10.10;;;;;;;11.56;98.79;99525.92;105857;1256;76401;-58
2023/03/04 08:21:54;;;;;;;14.90;10.70;;;;;;;11.37;98.76;99530.42;105736;1255;68581;-57
2023/03/04 08:24:24;;;;;;;13.40;10.40;;;;;;;10.98;98.50;99530.25;105802;1253;73559;-56
2023/03/04 08:26:53;;;;;;;17.50;11.60;;;;;;;10.50;100.00;99529.04;105830;1263;61129;-57
2023/03/04 08:29:22;;;;;;;14.30;10.80;;;;;;;10.19;100.00;99533.98;105855;1260;61231;-58
2023/03/04 08:31:52;;;;;;;14.70;11.00;;;;;;;10.13;100.00;99534.05;105995;1254;76397;-58
2023/03/04 08:34:23;;;;;;;15.00;10.80;;;;;;;10.09;100.00;99536.89;105736;1259;68493;-59
2023/03/04 08:36:57;;;;;;;20.20;11.10;;;;;;;9.88;100.00;99537.95;105279;1257;325663;-59
2023/03/04 08:39:25;;;;;;;16.10;11.20;;;;;;;9.75;100.00;99540.36;105578;1259;61262;-55
2023/03/04 08:41:54;;;;;;;15.50;11.80;;;;;;;9.70;100.00;99542.39;105897;1254;61761;-56
2023/03/04 08:44:23;;;;;;;16.70;10.60;;;;;;;9.65;100.00;99536.84;105823;1254;76037;-55
2023/03/04 08:46:53;;;;;;;16.00;11.10;;;;;;;9.50;100.00;99537.77;106083;1257;68764;-56
2023/03/04 08:49:26;;;;;;;15.80;10.90;;;;;;;9.40;100.00;99532.33;105697;1257;72770;-55
2023/03/04 08:51:54;;;;;;;15.60;11.00;;;;;;;9.37;100.00;99531.91;105983;1267;61231;-55
2023/03/04 08:54:23;;;;;;;15.20;10.20;;;;;;;9.40;100.00;99535.94;105883;1257;61785;-55
2023/03/04 08:56:52;;;;;;;14.40;10.00;;;;;;;9.56;100.00;99533.89;106196;1257;75378;-57
2023/03/04 08:59:21;;;;;;;13.60;9.70;;;;;;;9.80;100.00;99534.13;105460;1254;68143;-56
2023/03/04 09:01:49;;;;;;;14.20;9.60;;;;;;;9.77;100.00;99529.48;105712;1257;74210;-56
2023/03/04 09:04:18;;;;;;;13.60;9.10;;;;;;;9.42;100.00;99536.09;105705;1257;61990;-55
2023/03/04 09:06:47;;;;;;;15.80;10.70;;;;;;;9.09;100.00;99531.55;105847;1254;61144;-55
2023/03/04 09:09:16;;;;;;;16.00;10.40;;;;;;;8.92;100.00;99534.14;105709;1254;74906;-55
2023/03/04 09:11:49;;;;;;;15.20;10.40;;;;;;;8.95;100.00;99527.02;105598;1259;68361;-55
2023/03/04 09:14:20;;;;;;;15.70;10.80;;;;;;;9.22;100.00;99514.63;105766;1260;74235;-55
2023/03/04 09:16:49;;;;;;;14.00;9.40;;;;;;;9.59;100.00;99510.55;105996;1255;61217;-58
2023/03/04 09:19:18;;;;;;;15.00;10.00;;;;;;;10.18;100.00;99501.16;105415;1258;62137;-55
2023/03/04 09:21:47;;;;;;;12.80;8.90;;;;;;;10.79;100.00;99492.17;105821;1254;76184;-55
2023/03/04 09:24:16;;;;;;;12.90;9.20;;;;;;;11.24;100.00;99491.86;105862;1254;67792;-55
2023/03/04 09:26:51;;;;;;;;;;;;;;;11.61;100.00;99481.20;105988;1256;74211;-57
2023/03/04 09:29:19;;;;;;;12.40;9.50;;;;;;;11.96;100.00;99479.34;105789;1256;61342;-54
2023/03/04 09:31:48;;;;;;;14.60;10.60;;;;;;;12.30;97.73;99480.99;105908;1254;61180;-55
2023/03/04 09:34:17;;;;;;;13.70;8.80;;;;;;;12.50;95.50;99469.97;105792;1254;76034;-55
2023/03/04 09:36:46;;;;;;;12.80;9.00;;;;;;;12.71;89.21;99467.27;105792;1260;68467;-58
2023/03/04 09:39:14;;;;;;;12.40;9.00;;;;;;;12.68;80.82;99468.96;105767;1254;73664;-56
2023/03/04 09:41:48;;;;;;;16.40;9.50;;;;;;;12.32;77.77;99473.82;105715;1254;61652;-55
2023/03/04 09:44:35;;;;;;;14.30;10.00;;;;;;;11.77;84.59;99472.41;105505;1254;61952;-55
2023/03/04 09:47:08;;;;;;;13.10;9.20;;;;;;;11.30;91.40;99469.21;105802;1257;75557;-55
2023/03/04 09:49:42;;;;;;;13.30;9.50;;;;;;;11.09;99.11;99462.50;105530;1260;68421;-55
2023/03/04 09:52:19;;;;;;;13.60;9.30;;;;;;;11.16;99.31;99462.15;105801;1254;73641;-57
2023/03/04 09:54:54;;;;;;;14.40;8.80;;;;;;;11.04;96.11;99448.78;105857;1268;61224;-55
2023/03/04 09:57:36;;;;;;;12.40;8.80;;;;;;;10.59;95.79;99454.55;105839;1257;61319;-55
2023/03/04 10:00:19;;;;;;;12.20;9.00;;;;;;;10.02;99.86;99453.63;105502;1254;76179;-56
2023/03/04 10:03:08;;;;;;;13.30;9.70;;;;;;;9.52;100.00;99444.20;106156;1257;68383;-55
2023/03/04 10:06:06;;;;;;;14.40;9.80;;;;;;;9.23;100.00;99444.23;106041;1254;73914;-57
2023/03/04 10:08:39;;;;;;;14.40;9.50;;;;;;;8.99;100.00;99441.04;105885;1254;61929;-55
2023/03/04 10:11:12;;;;;;;14.00;8.50;;;;;;;8.76;100.00;99432.52;106123;1254;61910;-56
2023/03/04 10:14:11;;;;;;;12.50;8.00;;;;;;;8.84;100.00;99439.29;105860;1254;75307;-55
2023/03/04 10:16:45;;;;;;;11.70;8.60;;;;;;;9.27;100.00;99422.13;105839;1257;67902;-56
2023/03/04 10:19:14;;;;;;;12.80;7.90;;;;;;;9.67;100.00;99413.78;105478;1254;74071;-55
2023/03/04 10:21:47;;;;;;;14.80;8.50;;;;;;;10.04;100.00;99404.70;105713;1267;61254;-54
2023/03/04 10:24:21;;;;;;;13.10;8.40;;;;;;;10.28;100.00;99402.94;105812;1254;61939;-58
2023/03/04 10:26:54;;;;;;;11.60;8.20;;;;;;;10.47;100.00;99401.64;105838;1254;75292;-56
2023/03/04 10:29:23;;;;;;;11.40;7.70;;;;;;;10.70;98.28;99396.86;105722;1254;68597;-55
2023/03/04 10:31:55;;;;;;;11.10;8.20;;;;;;;10.81;90.64;99394.91;105752;1254;74250;-55
2023/03/04 10:34:24;;;;;;;14.10;8.20;;;;;;;10.68;88.90;99393.13;105822;1254;61956;-58
2023/03/04 10:36:57;;;;;;;12.70;8.40;;;;;;;10.39;91.37;99391.63;105767;1254;62083;-56
2023/03/04 10:39:28;;;;;;;10.90;6.90;;;;;;;10.06;94.52;99392.31;105783;1254;76290;-56
2023/03/04 10:42:01;;;;;;;10.60;7.40;;;;;;;9.72;93.33;99395.69;105412;1254;68824;-56
2023/03/04 10:44:33;;;;;;;12.70;8.70;;;;;;;9.39;96.89;99391.79;105607;1254;74675;-57
2023/03/04 10:47:01;;;;;;;12.70;9.20;;;;;;;9.12;100.00;99387.42;105633;1257;61823;-55
2023/03/04 10:49:32;;;;;;;12.10;7.90;;;;;;;8.94;100.00;99380.36;105630;1260;61241;-55
2023/03/04 10:52:12;;;;;;;12.70;9.00;;;;;;;8.80;100.00;99381.41;106005;1255;76292;-55
2023/03/04 10:54:41;;;;;;;12.60;8.30;;;;;;;8.61;100.00;99380.52;105524;1260;68196;-56
2023/03/04 10:57:17;;;;;;;12.20;8.10;;;;;;;8.42;100.00;99379.44;105745;1254;74178;-55
2023/03/04 11:00:28;;;;;;;13.00;8.30;;;;;;;8.27;100.00;99375.71;105722;1257;61336;-55
2023/03/04 11:03:12;;;;;;;11.60;7.30;;;;;;;8.14;100.00;99370.45;105998;1254;61803;-57
2023/03/04 11:05:40;;;;;;;12.80;8.20;;;;;;;8.07;100.00;99370.02;105824;1255;75947;-57
2023/03/04 11:08:18;;;;;;;13.50;8.80;;;;;;;8.11;100.00;99364.09;105582;1260;68565;-54
2023/03/04 11:10:51;;;;;;;13.80;8.70;;;;;;;8.22;100.00;99362.94;105831;1254;72525;-55
2023/03/04 11:13:25;;;;;;;13.10;8.40;;;;;;;8.46;100.00;99354.73;105435;1254;60818;-55
2023/03/04 11:15:57;;;;;;;12.20;7.80;;;;;;;8.73;100.00;99355.00;105792;1253;61510;-55
2023/03/04 11:18:46;;;;;;;13.10;7.90;;;;;;;8.93;100.00;99346.64;105703;1257;76067;-55
2023/03/04 11:21:19;;;;;;;12.10;7.80;;;;;;;9.18;100.00;99347.60;105956;1257;67618;-58
2023/03/04 11:24:03;;;;;;;11.00;7.40;;;;;;;9.45;100.00;99341.09;105932;1253;72569;-58
2023/03/04 11:26:48;;;;;;;10.90;7.50;;;;;;;9.77;100.00;99336.23;105721;1254;62154;-55